Time;durP1;ratioP1;P1;durP2;ratioP2;P2;SDS_P1;SDS_P2;PMS_P1;PMS_P2;Temp;Humidity;BMP_temperature;BMP_pressure;BME280_temperature;BME280_humidity;BME280_pressure;Samples;Min_cycle;Max_cycle;Signal;HPM_P1;HPM_P2
2022/10/28 00:01:04;;;;;;;16.38;13.10;;;;;;;21.85;64.41;102272.47;5075446;28;20049;-79
2022/10/28 00:03:32;;;;;;;14.82;12.85;;;;;;;21.84;64.48;102276.16;5075727;28;20052;-79
2022/10/28 00:06:08;;;;;;;15.27;13.23;;;;;;;21.85;64.36;102286.81;5075887;28;20044;-79
2022/10/28 00:08:36;;;;;;;13.95;12.45;;;;;;;21.85;64.37;102302.13;5074962;28;20049;-79
2022/10/28 00:11:11;;;;;;;17.02;12.60;;;;;;;21.84;64.25;102295.03;5075028;28;20044;-79
2022/10/28 00:13:41;;;;;;;14.68;13.18;;;;;;;21.84;64.32;102282.41;5075560;28;20400;-79
2022/10/28 00:16:12;;;;;;;14.57;12.07;;;;;;;21.84;64.24;102301.28;5074923;28;20044;-79
2022/10/28 00:18:40;;;;;;;17.52;13.77;;;;;;;21.84;64.26;102289.63;5075133;28;20056;-79
2022/10/28 00:21:16;;;;;;;14.50;12.80;;;;;;;21.84;64.21;102301.28;5056644;28;20153;-79
2022/10/28 00:23:44;;;;;;;16.30;13.88;;;;;;;21.84;64.11;102295.03;5054999;28;20068;-79
2022/10/28 00:26:18;;;;;;;15.00;13.05;;;;;;;21.83;64.26;102283.34;5055024;28;20041;-80
2022/10/28 00:28:58;;;;;;;15.32;11.63;;;;;;;21.84;64.08;102300.41;5055765;28;20045;-79
2022/10/28 00:31:27;;;;;;;17.40;13.07;;;;;;;21.83;64.16;102298.69;5055089;28;20055;-79
2022/10/28 00:33:57;;;;;;;15.20;12.77;;;;;;;21.83;64.17;102304.94;5054878;28;20496;-79
2022/10/28 00:36:30;;;;;;;15.50;12.93;;;;;;;21.83;64.18;102298.69;5055170;28;20041;-79
2022/10/28 00:38:59;;;;;;;14.38;12.82;;;;;;;21.83;64.12;102302.22;5055165;28;20048;-80
2022/10/28 00:41:33;;;;;;;14.52;12.27;;;;;;;21.83;64.12;102301.38;5070208;28;20049;-80
2022/10/28 00:44:36;;;;;;;13.73;12.00;;;;;;;21.84;64.07;102305.81;5054840;28;20053;-80
2022/10/28 00:47:11;;;;;;;15.88;12.20;;;;;;;21.83;64.03;102310.31;5012772;28;20054;-80
2022/10/28 00:49:39;;;;;;;14.73;11.77;;;;;;;21.83;64.12;102298.69;5013108;28;20053;-80
2022/10/28 00:52:14;;;;;;;15.27;12.15;;;;;;;21.83;64.08;102293.28;5012794;28;20062;-80
2022/10/28 00:54:42;;;;;;;15.68;13.15;;;;;;;21.82;63.96;102284.34;5012751;28;20509;-79
2022/10/28 00:57:18;;;;;;;14.70;12.45;;;;;;;21.83;64.05;102298.69;5012696;28;20057;-78
2022/10/28 00:59:49;;;;;;;13.60;12.13;;;;;;;21.82;63.92;102289.72;5012807;28;20077;-78
2022/10/28 01:02:18;;;;;;;13.35;12.00;;;;;;;21.81;63.93;102288.03;5012331;28;20363;-79
2022/10/28 01:04:46;;;;;;;16.23;12.50;;;;;;;21.83;64.02;102287.91;5012357;28;20065;-78
2022/10/28 01:07:15;;;;;;;14.93;11.70;;;;;;;21.82;64.04;102286.19;5011897;28;20061;-78
2022/10/28 01:09:43;;;;;;;15.15;12.70;;;;;;;21.80;63.92;102278.22;5011650;28;20061;-79
2022/10/28 01:12:44;;;;;;;14.60;12.23;;;;;;;21.81;64.02;102287.16;5011951;28;20066;-79
2022/10/28 01:15:25;;;;;;;13.55;11.98;;;;;;;21.80;63.90;102293.53;5011954;28;20050;-79
2022/10/28 01:17:56;;;;;;;17.48;12.95;;;;;;;21.81;63.88;102284.47;5012408;28;20479;-79
2022/10/28 01:20:41;;;;;;;13.95;11.90;;;;;;;21.81;63.92;102284.47;5009260;28;20062;-80
2022/10/28 01:23:32;;;;;;;16.00;12.57;;;;;;;21.81;63.97;102279.06;5000886;28;20064;-80
2022/10/28 01:26:24;;;;;;;13.82;12.23;;;;;;;21.81;63.81;102276.38;5054016;28;20056;-80
2022/10/28 01:29:10;;;;;;;13.63;12.05;;;;;;;21.81;63.70;102273.69;5054396;28;20071;-80
2022/10/28 01:31:58;;;;;;;13.45;12.05;;;;;;;21.81;63.71;102276.38;5052007;28;20056;-79
2022/10/28 01:34:57;;;;;;;14.98;11.98;;;;;;;21.81;63.75;102273.69;5054307;28;20469;-78
2022/10/28 01:37:37;;;;;;;14.90;11.30;;;;;;;21.79;63.91;102271.06;4992165;28;20074;-79
2022/10/28 01:40:11;;;;;;;13.85;12.43;;;;;;;21.80;63.85;102262.03;4992963;28;20406;-79
2022/10/28 01:42:44;;;;;;;13.48;11.35;;;;;;;21.80;63.87;102267.44;4976381;28;20510;-79
2022/10/28 01:45:25;;;;;;;13.35;11.73;;;;;;;21.80;63.82;102269.28;4992030;28;20050;-78
2022/10/28 01:48:07;;;;;;;13.32;11.90;;;;;;;21.79;63.70;102260.28;4992397;28;20422;-79
2022/10/28 01:50:42;;;;;;;13.05;11.73;;;;;;;21.78;63.61;102253.19;4992851;28;20054;-79
2022/10/28 01:53:14;;;;;;;12.15;10.93;;;;;;;21.79;63.70;102260.28;4992565;28;20054;-79
2022/10/28 01:55:46;;;;;;;13.13;11.60;;;;;;;21.79;63.63;102263.00;4976304;28;20057;-79
2022/10/28 01:58:17;;;;;;;13.20;10.65;;;;;;;21.79;63.73;102264.84;4992666;28;20046;-79
2022/10/28 02:00:46;;;;;;;11.52;10.32;;;;;;;21.79;63.68;102259.44;4992649;28;20062;-79
2022/10/28 02:03:15;;;;;;;14.90;11.18;;;;;;;21.78;63.63;102253.19;4992361;28;20070;-79
2022/10/28 02:05:44;;;;;;;16.70;11.60;;;;;;;21.78;63.57;102258.59;4992437;28;20050;-79
2022/10/28 02:08:17;;;;;;;13.57;11.93;;;;;;;21.78;63.61;102260.41;4991930;28;20058;-79
2022/10/28 02:12:15;;;;;;;12.00;10.73;;;;;;;21.78;63.57;102260.41;4976033;28;20050;-78
2022/10/28 02:15:04;;;;;;;12.43;10.90;;;;;;;21.77;63.73;102256.00;5044039;28;20059;-78
2022/10/28 02:17:55;;;;;;;13.88;10.75;;;;;;;21.78;63.57;102257.72;5073818;28;20056;-78
2022/10/28 02:20:23;;;;;;;12.30;11.00;;;;;;;21.78;63.72;102258.59;5075648;28;20055;-78
2022/10/28 02:23:10;;;;;;;12.18;10.75;;;;;;;21.77;63.69;102259.56;5061425;28;20037;-78
2022/10/28 02:26:05;;;;;;;13.82;12.20;;;;;;;21.77;63.54;102262.25;5058040;28;20049;-78
2022/10/28 02:28:59;;;;;;;13.88;12.45;;;;;;;21.77;63.47;102259.56;5057879;28;20045;-79
2022/10/28 02:31:49;;;;;;;14.73;11.98;;;;;;;21.77;63.48;102274.88;5056987;28;20045;-78
2022/10/28 02:34:22;;;;;;;15.70;12.35;;;;;;;21.77;63.57;102262.25;5057402;28;20067;-78
2022/10/28 02:36:53;;;;;;;12.70;11.50;;;;;;;21.77;63.37;102262.25;5057103;28;20040;-78
2022/10/28 02:39:34;;;;;;;13.65;12.18;;;;;;;21.76;63.50;102259.69;5057756;28;20049;-77
2022/10/28 02:42:11;;;;;;;14.23;12.63;;;;;;;21.77;63.54;102261.41;5057319;28;20049;-79
2022/10/28 02:44:47;;;;;;;14.45;12.13;;;;;;;21.76;63.39;102260.53;5058848;28;20053;-78
2022/10/28 02:47:22;;;;;;;18.27;13.10;;;;;;;21.75;63.34;102258.81;5077283;28;20464;-78
2022/10/28 02:49:55;;;;;;;13.52;11.75;;;;;;;21.76;63.41;102255.16;5077280;28;20048;-78
2022/10/28 02:52:27;;;;;;;14.02;12.30;;;;;;;21.76;63.39;102265.94;5077133;28;20056;-78
2022/10/28 02:54:57;;;;;;;14.02;11.93;;;;;;;21.75;63.33;102257.94;5076699;28;20049;-78
2022/10/28 02:57:34;;;;;;;15.57;12.25;;;;;;;21.76;63.47;102257.84;5077104;28;20051;-78
2022/10/28 03:00:08;;;;;;;13.45;12.05;;;;;;;21.76;63.32;102263.25;5076974;28;20412;-78
2022/10/28 03:02:35;;;;;;;14.45;12.52;;;;;;;21.75;63.38;102258.81;5076721;28;20048;-77
2022/10/28 03:05:05;;;;;;;13.70;12.27;;;;;;;21.76;63.24;102254.31;5076857;28;20067;-79
2022/10/28 03:07:32;;;;;;;13.38;11.98;;;;;;;21.75;63.35;102256.09;5076396;28;20037;-78
2022/10/28 03:10:00;;;;;;;14.23;12.48;;;;;;;21.75;63.36;102257.94;5076006;28;20078;-78
2022/10/28 03:12:28;;;;;;;15.75;12.55;;;;;;;21.75;63.23;102258.81;5077085;28;20048;-78
2022/10/28 03:14:55;;;;;;;15.70;13.00;;;;;;;21.73;63.26;102253.53;5076312;28;20044;-78
2022/10/28 03:17:23;;;;;;;13.63;12.05;;;;;;;21.75;63.19;102261.50;5076173;28;20047;-78
2022/10/28 03:19:50;;;;;;;14.32;11.35;;;;;;;21.73;63.21;102250.84;5074518;28;20068;-78
2022/10/28 03:22:17;;;;;;;15.52;12.25;;;;;;;21.73;63.19;102258.94;5073825;28;20389;-78
2022/10/28 03:24:45;;;;;;;15.90;12.80;;;;;;;21.72;63.23;102257.22;5055528;28;20488;-78
2022/10/28 03:27:12;;;;;;;15.40;12.52;;;;;;;21.74;63.12;102265.19;5056178;28;20045;-77
2022/10/28 03:29:39;;;;;;;18.80;13.05;;;;;;;21.73;63.19;102267.00;5056125;28;20049;-78
2022/10/28 03:32:12;;;;;;;13.25;11.75;;;;;;;21.75;63.05;102260.63;5056018;28;20067;-78
2022/10/28 03:34:40;;;;;;;15.85;12.07;;;;;;;21.73;63.18;102255.38;5056317;28;20072;-78
2022/10/28 03:37:07;;;;;;;14.18;11.93;;;;;;;21.73;63.15;102256.22;5075844;28;20041;-78
2022/10/28 03:39:34;;;;;;;14.52;12.25;;;;;;;21.73;63.24;102256.22;5075826;28;20045;-78
2022/10/28 03:42:02;;;;;;;15.40;11.32;;;;;;;21.73;63.39;102263.47;5076452;28;20049;-79
2022/10/28 03:44:29;;;;;;;14.48;11.60;;;;;;;21.72;63.31;102262.59;5075785;28;20484;-79
2022/10/28 03:46:56;;;;;;;15.50;13.25;;;;;;;21.73;63.27;102266.16;5056421;28;20049;-78
2022/10/28 03:49:23;;;;;;;13.18;11.18;;;;;;;21.73;63.63;102258.94;5055870;28;20045;-79
2022/10/28 03:51:51;;;;;;;13.88;11.23;;;;;;;21.72;63.62;102259.91;5056075;28;20055;-78
2022/10/28 03:54:18;;;;;;;13.48;11.32;;;;;;;21.73;63.71;102255.38;5055771;28;20048;-79
2022/10/28 03:56:45;;;;;;;14.68;12.93;;;;;;;21.73;63.62;102256.22;5055892;28;20049;-78
2022/10/28 03:59:13;;;;;;;13.23;11.93;;;;;;;21.73;63.55;102258.94;5053974;28;20064;-79
2022/10/28 04:01:45;;;;;;;12.88;11.20;;;;;;;21.71;63.71;102258.19;5056021;28;20045;-79
2022/10/28 04:04:12;;;;;;;13.32;9.93;;;;;;;21.72;63.87;102254.53;5055866;28;20404;-78
2022/10/28 04:06:40;;;;;;;12.25;10.95;;;;;;;21.73;63.94;102252.69;5055745;28;20045;-78
2022/10/28 04:09:07;;;;;;;13.63;11.43;;;;;;;21.72;63.85;102248.28;5054930;28;20053;-78
2022/10/28 04:11:34;;;;;;;13.05;11.45;;;;;;;21.73;63.74;102256.22;5055554;28;20049;-78
2022/10/28 04:14:02;;;;;;;13.65;12.13;;;;;;;21.72;63.48;102250.97;5055041;28;20045;-77
2022/10/28 04:16:29;;;;;;;15.30;12.38;;;;;;;21.72;63.53;102259.06;5054917;28;20052;-78
2022/10/28 04:18:56;;;;;;;13.00;11.10;;;;;;;21.72;63.57;102257.22;5053415;28;20067;-78
2022/10/28 04:21:23;;;;;;;13.50;10.40;;;;;;;21.72;63.85;102262.59;5055008;28;20056;-78
2022/10/28 04:23:51;;;;;;;12.98;11.70;;;;;;;21.71;63.85;102263.59;5054195;28;20045;-78
2022/10/28 04:26:18;;;;;;;14.38;12.07;;;;;;;21.71;63.61;102258.19;5067714;28;20044;-78
2022/10/28 04:28:45;;;;;;;14.38;12.27;;;;;;;21.72;63.35;102264.44;5074878;28;20049;-78
2022/10/28 04:31:13;;;;;;;15.80;12.27;;;;;;;21.72;63.48;102259.06;5074817;28;20063;-78
2022/10/28 04:33:40;;;;;;;14.85;11.50;;;;;;;21.71;63.36;102262.69;5075265;28;20044;-77
2022/10/28 04:36:08;;;;;;;12.68;11.35;;;;;;;21.71;63.44;102263.59;5074786;28;20055;-77
2022/10/28 04:38:35;;;;;;;15.75;12.13;;;;;;;21.70;63.37;102261.84;5074317;28;20047;-77
2022/10/28 04:41:02;;;;;;;14.27;12.05;;;;;;;21.70;63.06;102261.84;5074954;28;20041;-77
2022/10/28 04:43:30;;;;;;;14.93;12.38;;;;;;;21.69;63.29;102260.13;5073445;28;20051;-77
2022/10/28 04:45:57;;;;;;;14.38;12.68;;;;;;;21.70;63.24;102259.16;5061600;28;20044;-78
2022/10/28 04:48:24;;;;;;;14.20;11.73;;;;;;;21.69;63.17;102261.97;5054899;28;20052;-78
2022/10/28 04:50:52;;;;;;;15.55;12.27;;;;;;;21.70;63.24;102256.44;5054418;28;20052;-77
2022/10/28 04:53:19;;;;;;;13.57;11.90;;;;;;;21.68;63.12;102253.03;5055651;28;20052;-78
2022/10/28 04:55:46;;;;;;;14.18;11.77;;;;;;;21.68;63.13;102250.31;5074218;28;20044;-77
2022/10/28 04:58:14;;;;;;;14.80;11.40;;;;;;;21.69;63.22;102254.75;5074376;28;20052;-78
2022/10/28 05:00:41;;;;;;;14.38;11.90;;;;;;;21.68;63.17;102250.31;5074334;28;20055;-78
2022/10/28 05:03:08;;;;;;;13.43;10.85;;;;;;;21.68;63.23;102253.03;5075019;28;20396;-78
2022/10/28 05:05:36;;;;;;;14.60;10.70;;;;;;;21.70;63.57;102258.28;5074574;28;20051;-78
2022/10/28 05:08:04;;;;;;;12.18;10.02;;;;;;;21.69;63.62;102257.44;5089640;28;20040;-78
2022/10/28 05:10:31;;;;;;;12.50;9.63;;;;;;;21.70;63.66;102250.19;5074325;28;20052;-77
2022/10/28 05:12:59;;;;;;;12.48;10.73;;;;;;;21.70;63.57;102250.19;5074209;28;20049;-79
2022/10/28 05:15:26;;;;;;;16.45;10.80;;;;;;;21.69;63.41;102248.50;5074193;28;20047;-78
2022/10/28 05:17:53;;;;;;;13.30;11.55;;;;;;;21.69;63.21;102248.50;5074363;28;20051;-78
2022/10/28 05:20:22;;;;;;;11.85;10.68;;;;;;;21.69;63.29;102248.50;5074484;28;20048;-79
2022/10/28 05:22:52;;;;;;;10.73;9.73;;;;;;;21.68;63.26;102244.94;5074292;28;20131;-78
2022/10/28 05:25:21;;;;;;;11.80;9.88;;;;;;;21.68;63.28;102250.31;5063186;28;20041;-79
2022/10/28 05:27:48;;;;;;;13.50;11.52;;;;;;;21.68;63.15;102244.94;5054217;28;20041;-79
2022/10/28 05:30:16;;;;;;;13.32;11.55;;;;;;;21.68;63.09;102242.25;5054103;28;20056;-79
2022/10/28 05:32:44;;;;;;;15.43;11.32;;;;;;;21.66;63.01;102238.78;5053946;28;20064;-80
2022/10/28 05:35:15;;;;;;;13.77;11.27;;;;;;;21.68;62.77;102250.31;5054840;28;20045;-79
2022/10/28 05:37:42;;;;;;;11.85;10.65;;;;;;;21.66;62.97;102244.16;5073587;28;20072;-79
2022/10/28 05:40:10;;;;;;;12.60;11.32;;;;;;;21.66;62.87;102241.47;5074407;28;20388;-79
2022/10/28 05:42:41;;;;;;;15.57;11.32;;;;;;;21.66;62.90;102243.31;5074328;28;20483;-77
2022/10/28 05:45:09;;;;;;;12.13;10.93;;;;;;;21.66;62.89;102249.56;5073874;28;20048;-79
2022/10/28 05:47:47;;;;;;;13.82;11.52;;;;;;;21.64;62.91;102243.44;5074153;28;20053;-79
2022/10/28 05:50:17;;;;;;;12.25;10.57;;;;;;;21.65;62.87;102244.28;5074952;28;20055;-79
2022/10/28 05:52:48;;;;;;;12.48;11.20;;;;;;;21.65;62.72;102247.84;5074396;28;20048;-79
2022/10/28 05:55:18;;;;;;;12.60;10.93;;;;;;;21.64;62.72;102250.66;5077744;28;20056;-78
2022/10/28 05:57:47;;;;;;;11.30;9.85;;;;;;;21.65;62.78;102253.25;5078744;28;20044;-79
2022/10/28 06:00:17;;;;;;;14.73;11.88;;;;;;;21.66;62.54;102249.56;5079204;28;20396;-79
2022/10/28 06:02:45;;;;;;;12.65;11.30;;;;;;;21.66;62.69;102254.09;5078040;28;20071;-79
2022/10/28 06:05:12;;;;;;;12.77;10.38;;;;;;;21.65;62.58;102257.78;5078322;28;20048;-79
2022/10/28 06:07:40;;;;;;;14.60;10.85;;;;;;;21.65;62.74;102258.63;5078242;28;20059;-79
2022/10/28 06:10:10;;;;;;;15.65;11.40;;;;;;;21.65;62.66;102258.63;5077863;28;20072;-78
2022/10/28 06:12:38;;;;;;;14.07;11.63;;;;;;;21.65;62.69;102268.56;5078048;28;20044;-78
2022/10/28 06:15:05;;;;;;;16.02;11.57;;;;;;;21.64;62.69;102267.69;5077447;28;20404;-79
2022/10/28 06:17:33;;;;;;;14.98;11.45;;;;;;;21.64;62.53;102269.53;5077383;28;20044;-79
2022/10/28 06:20:00;;;;;;;13.40;11.73;;;;;;;21.63;62.35;102271.38;5076428;28;20052;-77
2022/10/28 06:22:28;;;;;;;12.27;10.07;;;;;;;21.64;62.58;102278.47;5077438;28;20055;-79
2022/10/28 06:24:55;;;;;;;13.77;10.48;;;;;;;21.64;62.64;102272.22;5077293;28;20055;-78
2022/10/28 06:27:22;;;;;;;12.43;11.00;;;;;;;21.63;62.59;102279.47;5056744;28;20044;-79
2022/10/28 06:29:49;;;;;;;13.13;11.55;;;;;;;21.63;62.51;102282.16;5057636;28;20056;-79
2022/10/28 06:32:17;;;;;;;14.38;11.50;;;;;;;21.63;62.48;102276.75;5057144;28;20045;-78
2022/10/28 06:34:44;;;;;;;12.73;10.88;;;;;;;21.64;62.66;102277.63;5056559;28;20453;-78
2022/10/28 06:37:13;;;;;;;12.80;10.50;;;;;;;21.63;62.52;102282.16;5056083;28;20384;-78
2022/10/28 06:39:42;;;;;;;13.05;11.02;;;;;;;21.63;62.59;102286.66;5056928;28;20048;-79
2022/10/28 06:42:09;;;;;;;12.98;11.65;;;;;;;21.63;62.50;102298.31;5056765;28;20392;-79
2022/10/28 06:44:36;;;;;;;13.50;11.65;;;;;;;21.63;62.50;102292.03;5056657;28;20045;-79
2022/10/28 06:47:04;;;;;;;13.50;11.75;;;;;;;21.63;62.60;102292.94;5057100;28;20056;-79
2022/10/28 06:49:31;;;;;;;16.75;11.70;;;;;;;21.62;62.47;102293.88;5056557;28;20045;-79
2022/10/28 06:51:58;;;;;;;12.73;11.27;;;;;;;21.63;62.76;102297.44;5056570;28;20056;-77
2022/10/28 06:54:25;;;;;;;15.05;11.38;;;;;;;21.63;62.92;102298.31;5072692;28;20056;-78
2022/10/28 06:56:53;;;;;;;12.45;11.15;;;;;;;21.64;62.82;102304.56;5077301;28;20049;-78
2022/10/28 06:59:20;;;;;;;13.85;12.30;;;;;;;21.63;62.83;102303.72;5077089;28;20052;-79
2022/10/28 07:01:47;;;;;;;11.77;10.43;;;;;;;21.64;63.06;102309.97;5076332;28;20048;-80
2022/10/28 07:04:15;;;;;;;12.43;10.20;;;;;;;21.64;63.24;102310.81;5074739;28;20075;-78
2022/10/28 07:06:42;;;;;;;15.40;10.68;;;;;;;21.64;63.17;102313.50;5076221;28;20052;-79
2022/10/28 07:09:13;;;;;;;10.73;9.63;;;;;;;21.65;63.16;102314.38;5076778;28;20056;-79
2022/10/28 07:11:44;;;;;;;12.40;8.93;;;;;;;21.66;63.36;102314.25;5076667;28;20049;-78
2022/10/28 07:14:11;;;;;;;14.95;10.45;;;;;;;21.65;63.04;102311.69;5076434;28;20049;-79
2022/10/28 07:16:39;;;;;;;10.65;9.27;;;;;;;21.66;63.03;102319.63;5076660;28;20048;-76
2022/10/28 07:19:24;;;;;;;15.10;11.43;;;;;;;21.68;62.49;102319.53;5076419;28;20342;-81
2022/10/28 07:22:41;;;;;;;25.90;17.50;;;;;;;21.65;61.93;102322.47;5076919;28;20041;-80
2022/10/28 07:25:08;;;;;;;22.65;17.98;;;;;;;21.61;61.26;102315.56;5076584;28;20051;-80
2022/10/28 07:27:35;;;;;;;30.65;19.00;;;;;;;21.60;61.17;102325.50;5076966;28;20051;-84
2022/10/28 07:30:03;;;;;;;26.63;18.50;;;;;;;21.58;61.25;102324.72;5076870;28;20037;-80
2022/10/28 07:32:31;;;;;;;30.95;19.90;;;;;;;21.57;61.03;102325.69;5076563;28;20048;-82
2022/10/28 07:34:59;;;;;;;25.17;19.58;;;;;;;21.56;61.02;102328.53;5076331;28;20056;-80
2022/10/28 07:37:28;;;;;;;23.75;18.67;;;;;;;21.55;60.97;102338.41;5076786;28;20067;-82
2022/10/28 07:39:55;;;;;;;21.40;16.77;;;;;;;21.56;61.11;102333.91;5076655;28;20052;-80
2022/10/28 07:42:22;;;;;;;24.17;18.20;;;;;;;21.58;60.58;102345.41;5076156;28;20073;-81
2022/10/28 07:44:50;;;;;;;21.40;16.67;;;;;;;21.56;60.69;102340.16;5074629;28;20052;-78
2022/10/28 07:47:18;;;;;;;25.35;18.27;;;;;;;21.57;61.02;102346.41;5076031;28;20045;-79
2022/10/28 07:49:46;;;;;;;22.10;16.75;;;;;;;21.59;61.21;102347.13;5075978;28;20051;-80
2022/10/28 07:52:13;;;;;;;25.17;17.23;;;;;;;21.58;61.11;102340.88;5075945;28;20044;-78
2022/10/28 07:54:40;;;;;;;26.67;17.73;;;;;;;21.59;61.13;102342.63;5075938;28;20063;-82
2022/10/28 07:57:08;;;;;;;21.65;16.65;;;;;;;21.59;61.33;102345.34;5076300;28;20055;-81
2022/10/28 07:59:35;;;;;;;20.58;16.13;;;;;;;21.61;61.26;102346.06;5075998;28;20481;-80
2022/10/28 08:02:02;;;;;;;25.23;16.42;;;;;;;21.60;61.38;102352.44;5075679;28;20048;-79
2022/10/28 08:04:31;;;;;;;21.83;15.65;;;;;;;21.62;61.72;102345.09;5075734;28;20045;-83
2022/10/28 08:06:58;;;;;;;20.67;15.20;;;;;;;21.63;61.65;102346.84;5076155;28;20511;-82
2022/10/28 08:09:26;;;;;;;15.13;12.77;;;;;;;21.65;61.98;102350.28;5075768;28;20048;-80
2022/10/28 08:11:55;;;;;;;17.58;13.35;;;;;;;21.66;62.07;102335.81;5075701;28;20044;-80
2022/10/28 08:14:23;;;;;;;15.65;12.88;;;;;;;21.68;62.12;102338.41;5075324;28;20511;-80
2022/10/28 08:16:50;;;;;;;20.95;14.32;;;;;;;21.69;62.08;102348.22;5075633;28;20044;-82
2022/10/28 08:19:17;;;;;;;22.05;15.43;;;;;;;21.69;61.80;102341.00;5073809;28;20055;-81
2022/10/28 08:21:46;;;;;;;20.00;14.73;;;;;;;21.71;61.88;102340.88;5075776;28;20041;-82
2022/10/28 08:24:13;;;;;;;22.40;16.05;;;;;;;21.70;61.79;102331.91;5075550;28;20053;-83
2022/10/28 08:26:40;;;;;;;19.50;14.27;;;;;;;21.72;61.73;102334.53;5075841;28;20400;-81
2022/10/28 08:29:11;;;;;;;21.90;15.18;;;;;;;21.71;62.22;102339.06;5073803;28;20048;-80
2022/10/28 08:31:38;;;;;;;30.35;15.32;;;;;;;21.73;62.37;102336.25;5074931;28;20396;-81
2022/10/28 08:34:06;;;;;;;20.00;13.95;;;;;;;21.74;62.36;102337.97;5074565;28;20044;-83
2022/10/28 08:36:34;;;;;;;24.95;16.00;;;;;;;21.74;62.08;102348.72;5074688;28;20056;-82
2022/10/28 08:39:02;;;;;;;24.10;15.98;;;;;;;21.76;62.04;102354.03;5074629;28;20048;-81
2022/10/28 08:41:51;;;;;;;22.20;16.20;;;;;;;21.76;61.90;102348.66;5074442;28;20138;-84
2022/10/28 08:44:50;;;;;;;21.00;16.02;;;;;;;21.77;62.05;102339.59;5074418;28;20111;-82
2022/10/28 08:47:20;;;;;;;22.55;16.30;;;;;;;21.78;62.31;102346.69;5074906;28;20048;-82
2022/10/28 08:49:53;;;;;;;22.92;16.77;;;;;;;21.80;62.25;102347.44;5074160;28;20040;-79
2022/10/28 08:52:23;;;;;;;;;;;;;;;21.80;62.33;102344.75;5074668;28;20407;-80
2022/10/28 08:55:04;;;;;;;25.10;16.55;;;;;;;21.80;62.25;102344.75;5074713;28;19931;-83
2022/10/28 08:57:42;;;;;;;22.38;16.67;;;;;;;21.80;62.36;102342.91;5074390;28;20049;-83
2022/10/28 09:00:28;;;;;;;23.40;16.13;;;;;;;21.81;62.37;102354.56;5074637;28;20477;-84
2022/10/28 09:03:10;;;;;;;28.70;18.08;;;;;;;21.81;62.18;102349.16;5074763;28;20048;-81
2022/10/28 09:05:40;;;;;;;25.95;18.90;;;;;;;21.80;62.00;102339.38;5074543;28;20044;-81
2022/10/28 09:08:32;;;;;;;27.83;17.92;;;;;;;21.81;62.08;102347.31;5074133;28;20044;-85
2022/10/28 09:11:09;;;;;;;32.50;17.90;;;;;;;21.82;62.23;102340.09;5070565;28;20049;-81
2022/10/28 09:14:12;;;;;;;21.75;17.35;;;;;;;21.83;62.11;102347.19;5074469;28;20089;-81
2022/10/28 09:16:46;;;;;;;25.67;17.98;;;;;;;21.82;62.04;102349.03;5075643;28;20044;-80
2022/10/28 09:19:19;;;;;;;28.15;19.33;;;;;;;21.84;62.08;102343.56;5074523;28;20053;-81
2022/10/28 09:21:47;;;;;;;;;;;;;;;21.84;62.32;102348.94;5074757;28;20055;-82
2022/10/28 09:24:19;;;;;;;28.25;19.85;;;;;;;21.84;62.25;102347.13;5074312;28;19924;-81
2022/10/28 09:26:54;;;;;;;22.63;17.48;;;;;;;21.84;62.28;102346.25;5072712;28;20052;-82
2022/10/28 09:29:38;;;;;;;27.85;17.85;;;;;;;21.85;62.14;102345.28;5074200;28;20059;-81
2022/10/28 09:32:27;;;;;;;25.65;16.77;;;;;;;21.86;62.33;102349.69;5074078;28;20052;-82
2022/10/28 09:35:05;;;;;;;22.48;16.25;;;;;;;21.86;62.42;102352.38;5073817;28;20055;-84
2022/10/28 09:37:39;;;;;;;23.63;17.45;;;;;;;21.86;62.48;102353.25;5072161;28;20053;-80
2022/10/28 09:40:19;;;;;;;25.33;17.08;;;;;;;21.87;62.41;102346.00;5073419;28;20044;-79
2022/10/28 09:43:08;;;;;;;25.75;17.25;;;;;;;21.86;62.26;102344.28;5074311;28;20055;-81
2022/10/28 09:45:42;;;;;;;30.60;20.27;;;;;;;21.89;62.20;102354.88;5074334;28;20048;-81
2022/10/28 09:48:15;;;;;;;30.15;19.73;;;;;;;21.89;62.31;102346.78;5074068;28;20045;-81
2022/10/28 09:50:43;;;;;;;25.88;18.13;;;;;;;21.89;62.36;102344.06;5074394;28;20052;-80
2022/10/28 09:53:25;;;;;;;25.67;18.80;;;;;;;21.90;62.53;102349.34;5072422;28;20053;-80
2022/10/28 09:55:52;;;;;;;26.60;19.25;;;;;;;21.89;62.64;102342.25;5073618;28;20079;-83
2022/10/28 09:58:20;;;;;;;23.90;18.13;;;;;;;21.89;62.49;102347.63;5073618;28;20048;-81
2022/10/28 10:00:47;;;;;;;30.50;19.35;;;;;;;21.90;62.51;102349.34;5074293;28;20511;-82
2022/10/28 10:03:16;;;;;;;28.08;18.65;;;;;;;21.91;62.55;102347.50;5073268;28;20051;-83
2022/10/28 10:05:48;;;;;;;35.15;21.05;;;;;;;21.91;62.31;102342.13;5074779;28;20045;-82
2022/10/28 10:08:18;;;;;;;26.98;20.70;;;;;;;21.92;62.45;102347.41;5074428;28;20053;-82
2022/10/28 10:11:00;;;;;;;23.58;19.08;;;;;;;21.93;62.47;102342.88;5074276;28;20111;-79
2022/10/28 10:13:37;;;;;;;24.42;17.80;;;;;;;21.92;62.39;102346.56;5073050;28;20048;-80
2022/10/28 10:16:20;;;;;;;29.30;19.98;;;;;;;21.93;62.57;102349.13;5073713;28;20044;-82
2022/10/28 10:18:51;;;;;;;30.98;19.63;;;;;;;21.93;62.51;102342.88;5058606;28;20049;-82
2022/10/28 10:21:39;;;;;;;22.88;17.08;;;;;;;21.93;62.61;102342.88;5053290;28;20036;-81
2022/10/28 10:24:30;;;;;;;28.27;20.05;;;;;;;21.93;62.51;102338.34;5053335;28;20052;-81
2022/10/28 10:27:11;;;;;;;28.77;19.17;;;;;;;21.94;62.62;102333.81;5053203;28;20049;-87
2022/10/28 10:29:47;;;;;;;31.67;19.83;;;;;;;21.94;62.60;102323.88;5053450;28;20504;-82
2022/10/28 10:32:23;;;;;;;32.85;21.77;;;;;;;21.93;62.54;102322.16;5053128;28;20060;-81
2022/10/28 10:35:00;;;;;;;34.45;21.88;;;;;;;21.94;62.42;102323.03;5065777;28;20397;-80
2022/10/28 10:37:32;;;;;;;37.95;22.65;;;;;;;21.93;62.61;102324.88;5073163;28;20052;-82
2022/10/28 10:40:15;;;;;;;28.52;21.02;;;;;;;21.94;63.01;102329.28;5072581;28;20047;-79
2022/10/28 10:42:43;;;;;;;38.08;21.77;;;;;;;21.94;63.16;102318.50;5076411;28;20048;-80
2022/10/28 10:45:30;;;;;;;30.20;20.52;;;;;;;21.94;64.46;102313.09;5075540;28;20507;-80
2022/10/28 10:48:11;;;;;;;28.90;20.92;;;;;;;21.93;65.05;102306.00;5091561;28;20052;-80
2022/10/28 10:50:45;;;;;;;28.65;19.58;;;;;;;21.93;64.41;102310.53;5076104;28;20048;-81
2022/10/28 10:53:19;;;;;;;31.58;20.88;;;;;;;21.92;65.84;102303.41;5076077;28;20041;-81
2022/10/28 10:56:07;;;;;;;27.33;19.50;;;;;;;21.91;66.00;102290.88;5076009;28;20063;-81
2022/10/28 10:58:39;;;;;;;22.65;17.85;;;;;;;21.92;65.22;102296.19;5076046;28;20072;-81
2022/10/28 11:01:08;;;;;;;28.48;20.98;;;;;;;21.91;63.96;102297.13;5074028;28;20507;-80
2022/10/28 11:03:52;;;;;;;28.98;21.70;;;;;;;21.89;65.00;102288.31;5075290;28;20060;-81
2022/10/28 11:06:42;;;;;;;42.28;27.05;;;;;;;21.91;63.35;102283.66;5075581;28;20041;-81
2022/10/28 11:09:21;;;;;;;47.42;33.75;;;;;;;21.87;63.09;102278.59;5077235;28;20514;-81
2022/10/28 11:11:52;;;;;;;34.75;25.33;;;;;;;21.87;65.08;102278.59;5076068;28;20052;-82
2022/10/28 11:14:23;;;;;;;37.20;25.73;;;;;;;21.86;65.05;102279.59;5075660;28;20041;-82
2022/10/28 11:16:59;;;;;;;37.28;25.55;;;;;;;21.86;66.00;102266.97;5073364;28;20053;-80
2022/10/28 11:19:30;;;;;;;36.72;24.80;;;;;;;21.85;65.64;102267.09;5075428;28;20060;-80
2022/10/28 11:22:38;;;;;;;38.42;25.83;;;;;;;21.85;66.77;102262.56;5075931;28;20412;-81
2022/10/28 11:25:44;;;;;;;39.85;26.83;;;;;;;21.85;66.25;102259.00;5076096;28;20053;-81
2022/10/28 11:28:26;;;;;;;34.03;24.20;;;;;;;21.86;66.48;102255.31;5076139;28;20491;-80
2022/10/28 11:30:56;;;;;;;37.08;26.00;;;;;;;21.84;66.19;102251.91;5075226;28;20044;-81
2022/10/28 11:33:36;;;;;;;38.28;25.77;;;;;;;21.85;66.42;102250.91;5075294;28;20392;-80
2022/10/28 11:36:20;;;;;;;40.75;26.10;;;;;;;21.84;66.94;102241.97;5075513;28;20519;-80